Fort Nelson Airport, British Columbia

Past 24 Hour Conditions

Date / Time
(PDT)
Conditions Temp
(°F)
Humidity
(%)
Dew Point
(°F)
Wind
(mph)
Pressure
(inches)
Vis
(mi)
Wind Chill
25 October 2014
14:00 Partly Cloudy 33   86 29 calm 29.9 30 *
13:00 Partly Cloudy 31 86 27 N 2 29.9 30 29
12:00 Partly Cloudy 29 92 27 SSE 2 29.9 30 27
11:00 Partly Cloudy 25 94 24 calm 30.0 30 24
10:00 Mainly Sunny 22 95 21 calm 30.0 30 *
9:00 Mainly Sunny 19 95 18 S 3 30.0 30 14
8:00 Mainly Clear 19 93 17 SE 3 30.0 20 15
7:00 Mainly Clear 18   94 16 WSW 4 30.0 15 11
6:00 Mist 20 96 19 SSW 4 30.0 1 13
5:00 Clear 22 97 21 S 3 30.0 15 17
4:00 Mainly Clear 22 98 22 S 5 30.0 15 16
3:00 Mainly Clear 22 97 22 S 5 30.0 15 16
2:00 Mainly Clear 24 98 23 S 3 30.0 15 21
1:00 Clear 25 99 24 SSE 2 30.0 15 22
00:00 Mist 26 99 26 S 3 30.0 2 23
24 October 2014
23:00 Clear 27 99 27 S 5 30.0 15 22
22:00 Clear 28 99 28 S 5 29.9 15 22
21:00 Clear 29 99 29 S 6 29.9 15 23
20:00 Clear 31 98 30 S 6 29.9 15 25
19:00 Partly Cloudy 31 97 31 S 4 29.9 15 27
18:00 Partly Cloudy 32 97 31 S 5 29.9 15 27
17:00 Mostly Cloudy 33   93 31 S 2 29.9 15 *
16:00 Mostly Cloudy 33   92 31 S 3 29.9 15 *
15:00 Mostly Cloudy 33   88 29 SE 4 29.9 30 *
14:00 Mostly Cloudy 32 87 28 S 6 29.9 20 26
N/A Not available
↑ Highest temperature
↓ Lowest temperature
* Value not significant.

If you require additional historical weather information, please visit Climate Data Online.

Date modified: